createdAt,value
2018-03-25T00:00:22.094Z,0
2018-03-25T00:01:22.962Z,0
2018-03-25T00:02:22.413Z,0
2018-03-25T00:03:22.139Z,0
2018-03-25T00:04:22.718Z,0
2018-03-25T00:05:22.735Z,0
2018-03-25T00:06:22.168Z,0
2018-03-25T00:07:23.032Z,0
2018-03-25T00:08:23.048Z,0
2018-03-25T00:09:22.502Z,0
2018-03-25T00:10:22.507Z,0
2018-03-25T00:11:22.809Z,0
2018-03-25T00:12:22.826Z,0
2018-03-25T00:13:23.154Z,0
2018-03-25T00:14:23.132Z,0
2018-03-25T00:15:22.854Z,0
2018-03-25T00:16:22.863Z,0
2018-03-25T00:17:22.890Z,0
2018-03-25T00:18:23.178Z,0
2018-03-25T00:19:22.617Z,0
2018-03-25T00:20:22.634Z,0
2018-03-25T00:21:22.360Z,0
2018-03-25T00:22:22.988Z,0
2018-03-25T00:23:23.248Z,0
2018-03-25T00:24:23.255Z,0
2018-03-25T00:25:22.983Z,0
2018-03-25T00:26:22.993Z,0
2018-03-25T00:27:22.720Z,0
2018-03-25T00:28:23.310Z,0
2018-03-25T00:29:23.036Z,0
2018-03-25T00:30:23.041Z,0
2018-03-25T00:31:23.067Z,0
2018-03-25T00:32:23.364Z,0
2018-03-25T00:33:23.265Z,0
2018-03-25T00:34:22.527Z,0
2018-03-25T00:35:23.115Z,0
2018-03-25T00:36:22.555Z,0
2018-03-25T00:37:22.843Z,0
2018-03-25T00:38:23.425Z,0
2018-03-25T00:39:22.586Z,0
2018-03-25T00:40:23.174Z,0
2018-03-25T00:41:23.188Z,0
2018-03-25T00:42:23.588Z,0
2018-03-25T00:43:23.214Z,0
2018-03-25T00:44:22.652Z,0
2018-03-25T00:45:22.951Z,0
2018-03-25T00:46:23.291Z,0
2018-03-25T00:47:22.982Z,0
2018-03-25T00:48:23.555Z,0
2018-03-25T00:49:23.002Z,0
2018-03-25T00:50:23.010Z,0
2018-03-25T00:51:23.308Z,0
2018-03-25T00:52:23.331Z,0
2018-03-25T00:53:23.615Z,0
2018-03-25T00:54:23.060Z,0
2018-03-25T00:55:23.355Z,0
2018-03-25T00:56:23.368Z,0
2018-03-25T00:57:23.100Z,0
2018-03-25T00:58:23.398Z,0
2018-03-25T00:59:23.124Z,0
2018-03-25T01:00:23.414Z,0
2018-03-25T01:01:23.496Z,0
2018-03-25T01:02:23.159Z,0
2018-03-25T01:03:23.174Z,0
2018-03-25T01:04:22.910Z,0
2018-03-25T01:05:22.920Z,0
2018-03-25T01:06:23.495Z,0
2018-03-25T01:07:22.655Z,0
2018-03-25T01:08:23.523Z,0
2018-03-25T01:09:23.257Z,0
2018-03-25T01:10:23.546Z,0
2018-03-25T01:11:23.892Z,0
2018-03-25T01:12:23.586Z,0
2018-03-25T01:13:23.579Z,0
2018-03-25T01:14:23.590Z,0
2018-03-25T01:15:23.617Z,0
2018-03-25T01:16:23.344Z,0
2018-03-25T01:17:23.923Z,0
2018-03-25T01:18:23.923Z,0
2018-03-25T01:19:23.369Z,0
2018-03-25T01:20:23.109Z,0
2018-03-25T01:21:23.685Z,0
2018-03-25T01:22:24.002Z,0
2018-03-25T01:23:23.421Z,0
2018-03-25T01:24:23.716Z,0
2018-03-25T01:25:23.439Z,0
2018-03-25T01:26:23.181Z,0
2018-03-25T01:27:23.751Z,0
2018-03-25T01:28:23.772Z,0
2018-03-25T01:29:23.506Z,0
2018-03-25T01:30:23.508Z,0
2018-03-25T01:31:24.078Z,0
2018-03-25T01:32:23.541Z,0
2018-03-25T01:33:24.102Z,0
2018-03-25T01:34:23.835Z,0
2018-03-25T01:35:23.277Z,0
2018-03-25T01:36:24.150Z,0
2018-03-25T01:37:23.586Z,0
2018-03-25T01:38:24.165Z,0
2018-03-25T01:39:24.180Z,0
2018-03-25T01:40:24.149Z,0
2018-03-25T01:41:24.170Z,0
2018-03-25T01:42:23.653Z,0
2018-03-25T01:43:23.953Z,0
2018-03-25T01:44:23.974Z,0
2018-03-25T01:45:23.979Z,0
2018-03-25T01:46:24.047Z,0
2018-03-25T01:47:23.425Z,0
2018-03-25T01:48:23.737Z,0
2018-03-25T01:49:23.451Z,0
2018-03-25T01:50:24.028Z,0
2018-03-25T01:51:23.758Z,0
2018-03-25T01:52:24.063Z,0
2018-03-25T01:53:23.788Z,0
2018-03-25T01:54:24.078Z,0
2018-03-25T01:55:23.810Z,0
2018-03-25T01:56:24.102Z,0
2018-03-25T01:57:23.544Z,0
2018-03-25T01:58:24.123Z,0
2018-03-25T01:59:23.849Z,0
2018-03-25T02:00:24.441Z,0
2018-03-25T02:01:23.602Z,0
2018-03-25T02:02:23.624Z,0
2018-03-25T02:03:24.464Z,0
2018-03-25T02:04:24.482Z,0
2018-03-25T02:05:23.948Z,0
2018-03-25T02:06:24.224Z,0
2018-03-25T02:07:24.515Z,0
2018-03-25T02:08:23.682Z,0
2018-03-25T02:09:24.263Z,0
2018-03-25T02:10:24.275Z,0
2018-03-25T02:11:23.718Z,0
2018-03-25T02:12:24.352Z,0
2018-03-25T02:13:24.024Z,0
2018-03-25T02:14:24.333Z,0
2018-03-25T02:15:24.628Z,0
2018-03-25T02:16:24.066Z,0
2018-03-25T02:17:24.403Z,0
2018-03-25T02:18:24.429Z,0
2018-03-25T02:19:24.380Z,0
2018-03-25T02:20:24.390Z,0
2018-03-25T02:21:24.402Z,0
2018-03-25T02:22:24.135Z,0
2018-03-25T02:23:24.718Z,0
2018-03-25T02:24:24.166Z,0
2018-03-25T02:25:24.190Z,0
2018-03-25T02:26:24.742Z,0
2018-03-25T02:27:24.478Z,0
2018-03-25T02:28:24.495Z,0
2018-03-25T02:29:24.493Z,0
2018-03-25T02:30:24.515Z,0
2018-03-25T02:31:24.238Z,0
2018-03-25T02:32:24.314Z,0
2018-03-25T02:33:24.853Z,0
2018-03-25T02:34:24.307Z,0
2018-03-25T02:35:24.304Z,0
2018-03-25T02:36:24.589Z,0
2018-03-25T02:37:24.657Z,0
2018-03-25T02:38:24.609Z,0
2018-03-25T02:39:24.368Z,0
2018-03-25T02:40:24.637Z,0
2018-03-25T02:41:24.366Z,0
2018-03-25T02:42:24.740Z,0
2018-03-25T02:43:24.390Z,0
2018-03-25T02:44:24.704Z,0
2018-03-25T02:45:24.696Z,0
2018-03-25T02:46:24.725Z,0
2018-03-25T02:47:25.006Z,0
2018-03-25T02:48:24.757Z,0
2018-03-25T02:49:24.754Z,0
2018-03-25T02:50:24.749Z,0
2018-03-25T02:51:24.766Z,0
2018-03-25T02:52:24.839Z,0
2018-03-25T02:53:24.797Z,0
2018-03-25T02:54:24.521Z,0
2018-03-25T02:55:24.875Z,0
2018-03-25T02:56:24.822Z,0
2018-03-25T02:57:25.177Z,0
2018-03-25T02:58:24.853Z,0
2018-03-25T02:59:25.153Z,0
2018-03-25T03:00:24.874Z,0
2018-03-25T03:01:25.175Z,0
2018-03-25T03:02:24.611Z,0
2018-03-25T03:03:24.619Z,0
2018-03-25T03:04:24.925Z,0
2018-03-25T03:05:24.650Z,0
2018-03-25T03:06:24.688Z,0
2018-03-25T03:07:25.237Z,0
2018-03-25T03:08:24.109Z,0
2018-03-25T03:09:24.983Z,0
2018-03-25T03:10:25.271Z,0
2018-03-25T03:11:24.994Z,0
2018-03-25T03:12:24.776Z,0
2018-03-25T03:13:25.302Z,0
2018-03-25T03:14:24.467Z,0
2018-03-25T03:15:25.331Z,0
2018-03-25T03:16:24.769Z,0
2018-03-25T03:17:25.346Z,0
2018-03-25T03:18:25.074Z,0
2018-03-25T03:19:24.805Z,0
2018-03-25T03:20:24.824Z,0
2018-03-25T03:21:24.826Z,0
2018-03-25T03:22:25.128Z,0
2018-03-25T03:23:24.584Z,0
2018-03-25T03:24:25.154Z,0
2018-03-25T03:25:25.160Z,0
2018-03-25T03:26:25.177Z,0
2018-03-25T03:27:25.195Z,0
2018-03-25T03:28:25.193Z,0
2018-03-25T03:29:25.494Z,0
2018-03-25T03:30:24.949Z,0
2018-03-25T03:31:24.664Z,0
2018-03-25T03:32:25.566Z,0
2018-03-25T03:33:24.969Z,0
2018-03-25T03:34:24.992Z,0
2018-03-25T03:35:25.284Z,0
2018-03-25T03:36:25.295Z,0
2018-03-25T03:37:25.624Z,0
2018-03-25T03:38:25.314Z,0
2018-03-25T03:39:25.615Z,0
2018-03-25T03:40:25.327Z,0
2018-03-25T03:41:24.778Z,0
2018-03-25T03:42:25.461Z,0
2018-03-25T03:43:25.082Z,0
2018-03-25T03:44:25.382Z,0
2018-03-25T03:45:25.678Z,0
2018-03-25T03:46:25.396Z,0
2018-03-25T03:47:25.411Z,0
2018-03-25T03:48:25.138Z,0
2018-03-25T03:49:25.437Z,0
2018-03-25T03:50:25.739Z,0
2018-03-25T03:51:25.461Z,0
2018-03-25T03:52:25.196Z,0
2018-03-25T03:53:25.208Z,0
2018-03-25T03:54:25.782Z,0
2018-03-25T03:55:25.790Z,0
2018-03-25T03:56:25.515Z,0
2018-03-25T03:57:25.523Z,0
2018-03-25T03:58:25.253Z,0
2018-03-25T03:59:25.568Z,0
2018-03-25T04:00:25.564Z,0
2018-03-25T04:01:25.579Z,0
2018-03-25T04:02:25.581Z,0
2018-03-25T04:03:25.595Z,0
2018-03-25T04:04:25.674Z,0
2018-03-25T04:05:26.105Z,0
2018-03-25T04:06:25.351Z,0
2018-03-25T04:07:25.408Z,0
2018-03-25T04:08:25.093Z,0
2018-03-25T04:09:25.395Z,0
2018-03-25T04:10:25.392Z,0
2018-03-25T04:11:25.691Z,0
2018-03-25T04:12:25.696Z,0
2018-03-25T04:13:25.429Z,0
2018-03-25T04:14:25.446Z,0
2018-03-25T04:15:26.019Z,0
2018-03-25T04:16:25.481Z,0
2018-03-25T04:17:25.475Z,0
2018-03-25T04:18:25.205Z,0
2018-03-25T04:19:25.499Z,0
2018-03-25T04:20:26.084Z,0
2018-03-25T04:21:25.800Z,0
2018-03-25T04:22:26.147Z,0
2018-03-25T04:23:25.825Z,0
2018-03-25T04:24:26.142Z,0
2018-03-25T04:25:25.568Z,0
2018-03-25T04:26:25.297Z,0
2018-03-25T04:27:26.169Z,0
2018-03-25T04:28:25.314Z,0
2018-03-25T04:29:26.174Z,0
2018-03-25T04:30:26.192Z,0
2018-03-25T04:31:25.346Z,0
2018-03-25T04:32:25.952Z,0
2018-03-25T04:33:25.653Z,0
2018-03-25T04:34:25.668Z,0
2018-03-25T04:35:26.261Z,0
2018-03-25T04:36:26.254Z,0
2018-03-25T04:37:25.711Z,0
2018-03-25T04:38:25.712Z,0
2018-03-25T04:39:25.725Z,0
2018-03-25T04:40:26.027Z,0
2018-03-25T04:41:26.314Z,0
2018-03-25T04:42:25.763Z,0
2018-03-25T04:43:26.339Z,0
2018-03-25T04:44:26.347Z,0
2018-03-25T04:45:26.083Z,0
2018-03-25T04:46:26.090Z,0
2018-03-25T04:47:26.228Z,0
2018-03-25T04:48:26.109Z,0
2018-03-25T04:49:26.123Z,0
2018-03-25T04:50:25.577Z,0
2018-03-25T04:51:25.865Z,0
2018-03-25T04:52:26.156Z,0
2018-03-25T04:53:26.215Z,0
2018-03-25T04:54:25.898Z,0
2018-03-25T04:55:25.908Z,0
2018-03-25T04:56:26.210Z,0
2018-03-25T04:57:26.210Z,0
2018-03-25T04:58:26.226Z,0
2018-03-25T04:59:26.239Z,0
2018-03-25T05:00:26.251Z,0
2018-03-25T05:01:26.259Z,0
2018-03-25T05:02:25.985Z,0
2018-03-25T05:03:26.619Z,0
2018-03-25T05:04:26.579Z,0
2018-03-25T05:05:26.304Z,0
2018-03-25T05:06:26.316Z,0
2018-03-25T05:07:26.322Z,0
2018-03-25T05:08:26.615Z,0
2018-03-25T05:09:26.385Z,0
2018-03-25T05:10:26.358Z,0
2018-03-25T05:11:26.367Z,0
2018-03-25T05:12:26.397Z,0
2018-03-25T05:13:26.165Z,0
2018-03-25T05:14:26.692Z,0
2018-03-25T05:15:26.699Z,0
2018-03-25T05:16:25.859Z,0
2018-03-25T05:17:26.729Z,0
2018-03-25T05:18:26.453Z,0
2018-03-25T05:19:26.550Z,0
2018-03-25T05:20:26.753Z,0
2018-03-25T05:21:26.199Z,0
2018-03-25T05:22:26.493Z,0
2018-03-25T05:23:26.795Z,0
2018-03-25T05:24:26.234Z,0
2018-03-25T05:25:26.249Z,0
2018-03-25T05:26:26.538Z,0
2018-03-25T05:27:26.550Z,0
2018-03-25T05:28:26.845Z,0
2018-03-25T05:29:26.002Z,0
2018-03-25T05:30:25.735Z,0
2018-03-25T05:31:26.897Z,0
2018-03-25T05:32:26.040Z,0
2018-03-25T05:33:26.339Z,0
2018-03-25T05:34:26.978Z,0
2018-03-25T05:35:26.682Z,0
2018-03-25T05:36:26.374Z,0
2018-03-25T05:37:26.961Z,0
2018-03-25T05:38:26.387Z,0
2018-03-25T05:39:26.697Z,0
2018-03-25T05:40:26.728Z,0
2018-03-25T05:41:26.992Z,0
2018-03-25T05:42:26.718Z,0
2018-03-25T05:43:26.454Z,0
2018-03-25T05:44:26.740Z,0
2018-03-25T05:45:27.013Z,0
2018-03-25T05:46:26.767Z,0
2018-03-25T05:47:26.847Z,0
2018-03-25T05:48:26.222Z,0
2018-03-25T05:49:26.514Z,0
2018-03-25T05:50:26.527Z,5
2018-03-25T05:51:26.537Z,5
2018-03-25T05:52:26.837Z,5
2018-03-25T05:53:26.559Z,5
2018-03-25T05:54:26.851Z,5
2018-03-25T05:55:26.376Z,5
2018-03-25T05:56:27.164Z,5
2018-03-25T05:57:26.972Z,5
2018-03-25T05:58:26.899Z,5
2018-03-25T05:59:26.620Z,5
2018-03-25T06:00:26.913Z,5
2018-03-25T06:01:26.732Z,5
2018-03-25T06:02:27.316Z,5
2018-03-25T06:03:27.284Z,5
2018-03-25T06:04:26.679Z,5
2018-03-25T06:05:26.971Z,5
2018-03-25T06:06:26.988Z,5
2018-03-25T06:07:27.284Z,5
2018-03-25T06:08:27.058Z,5
2018-03-25T06:09:27.309Z,5
2018-03-25T06:10:27.032Z,5
2018-03-25T06:11:26.765Z,5
2018-03-25T06:12:27.068Z,5
2018-03-25T06:13:26.496Z,5
2018-03-25T06:14:27.076Z,5
2018-03-25T06:15:27.434Z,5
2018-03-25T06:16:26.542Z,5
2018-03-25T06:17:26.823Z,5
2018-03-25T06:18:27.180Z,5
2018-03-25T06:19:26.894Z,5
2018-03-25T06:20:26.573Z,5
2018-03-25T06:21:27.154Z,5
2018-03-25T06:22:26.978Z,5
2018-03-25T06:23:27.561Z,5
2018-03-25T06:24:27.470Z,5
2018-03-25T06:25:27.506Z,5
2018-03-25T06:26:27.494Z,5
2018-03-25T06:27:27.228Z,5
2018-03-25T06:28:27.007Z,5
2018-03-25T06:29:27.527Z,5
2018-03-25T06:30:27.269Z,5
2018-03-25T06:31:27.272Z,5
2018-03-25T06:32:27.274Z,5
2018-03-25T06:33:27.336Z,5
2018-03-25T06:34:27.622Z,5
2018-03-25T06:35:27.312Z,5
2018-03-25T06:36:26.468Z,5
2018-03-25T06:37:27.618Z,5
2018-03-25T06:38:27.396Z,5
2018-03-25T06:39:27.407Z,5
2018-03-25T06:40:27.381Z,5
2018-03-25T06:41:27.383Z,5
2018-03-25T06:42:27.674Z,5
2018-03-25T06:43:27.403Z,5
2018-03-25T06:44:27.812Z,5
2018-03-25T06:45:27.704Z,5
2018-03-25T06:46:27.716Z,5
2018-03-25T06:47:27.727Z,5
2018-03-25T06:48:27.182Z,5
2018-03-25T06:49:27.186Z,5
2018-03-25T06:50:27.481Z,5
2018-03-25T06:51:27.204Z,5
2018-03-25T06:52:27.785Z,5
2018-03-25T06:53:27.804Z,5
2018-03-25T06:54:27.541Z,5
2018-03-25T06:55:27.250Z,5
2018-03-25T06:56:27.830Z,5
2018-03-25T06:57:27.560Z,5
2018-03-25T06:58:27.568Z,5
2018-03-25T06:59:27.582Z,5
2018-03-25T07:00:27.024Z,5
2018-03-25T07:01:27.605Z,5
2018-03-25T07:02:27.473Z,5
2018-03-25T07:03:27.623Z,5
2018-03-25T07:04:27.689Z,5
2018-03-25T07:05:27.938Z,5
2018-03-25T07:06:27.948Z,5
2018-03-25T07:07:27.964Z,5
2018-03-25T07:08:27.401Z,5
2018-03-25T07:09:28.097Z,5
2018-03-25T07:10:27.433Z,10
2018-03-25T07:11:28.002Z,10
2018-03-25T07:12:27.741Z,10
2018-03-25T07:13:27.752Z,10
2018-03-25T07:14:27.608Z,10
2018-03-25T07:15:27.764Z,10
2018-03-25T07:16:28.052Z,10
2018-03-25T07:17:28.084Z,10
2018-03-25T07:18:28.096Z,10
2018-03-25T07:19:27.299Z,10
2018-03-25T07:20:27.838Z,10
2018-03-25T07:21:27.846Z,10
2018-03-25T07:22:27.310Z,10
2018-03-25T07:23:27.868Z,10
2018-03-25T07:24:27.875Z,10
2018-03-25T07:25:27.596Z,10
2018-03-25T07:26:28.185Z,10
2018-03-25T07:27:27.919Z,10
2018-03-25T07:28:27.628Z,10
2018-03-25T07:29:27.928Z,10
2018-03-25T07:30:28.223Z,10
2018-03-25T07:31:27.952Z,10
2018-03-25T07:32:28.239Z,10
2018-03-25T07:33:27.693Z,10
2018-03-25T07:34:27.166Z,10
2018-03-25T07:35:28.004Z,10
2018-03-25T07:36:28.016Z,10
2018-03-25T07:37:28.323Z,10
2018-03-25T07:38:28.318Z,10
2018-03-25T07:39:27.529Z,10
2018-03-25T07:40:28.325Z,10
2018-03-25T07:41:27.790Z,10
2018-03-25T07:42:28.084Z,10
2018-03-25T07:43:28.376Z,10
2018-03-25T07:44:27.587Z,10
2018-03-25T07:45:27.879Z,10
2018-03-25T07:46:28.199Z,10
2018-03-25T07:47:28.621Z,10
2018-03-25T07:48:27.861Z,10
2018-03-25T07:49:28.201Z,10
2018-03-25T07:50:28.453Z,10
2018-03-25T07:51:28.179Z,10
2018-03-25T07:52:28.219Z,10
2018-03-25T07:53:27.919Z,10
2018-03-25T07:54:27.985Z,10
2018-03-25T07:55:27.938Z,10
2018-03-25T07:56:28.239Z,10
2018-03-25T07:57:28.263Z,10
2018-03-25T07:58:27.982Z,10
2018-03-25T07:59:28.317Z,10
2018-03-25T08:00:28.001Z,10
2018-03-25T08:01:28.304Z,10
2018-03-25T08:02:28.037Z,10
2018-03-25T08:03:28.318Z,10
2018-03-25T08:04:28.340Z,10
2018-03-25T08:05:28.345Z,10
2018-03-25T08:06:28.638Z,10
2018-03-25T08:07:28.662Z,10
2018-03-25T08:08:28.387Z,10
2018-03-25T08:09:28.686Z,10
2018-03-25T08:10:28.416Z,10
2018-03-25T08:11:28.705Z,10
2018-03-25T08:12:28.444Z,10
2018-03-25T08:13:28.154Z,10
2018-03-25T08:14:28.169Z,10
2018-03-25T08:15:28.767Z,10
2018-03-25T08:16:28.472Z,10
2018-03-25T08:17:28.499Z,10
2018-03-25T08:18:28.496Z,10
2018-03-25T08:19:28.506Z,10
2018-03-25T08:20:28.548Z,10
2018-03-25T08:21:28.893Z,10
2018-03-25T08:22:28.828Z,10
2018-03-25T08:23:28.844Z,10
2018-03-25T08:24:28.298Z,10
2018-03-25T08:25:28.589Z,10
2018-03-25T08:26:28.060Z,10
2018-03-25T08:27:28.615Z,10
2018-03-25T08:28:28.906Z,10
2018-03-25T08:29:28.363Z,10
2018-03-25T08:30:28.414Z,10
2018-03-25T08:31:28.944Z,10
2018-03-25T08:32:28.392Z,10
2018-03-25T08:33:28.974Z,10
2018-03-25T08:34:28.695Z,10
2018-03-25T08:35:29.042Z,10
2018-03-25T08:36:28.449Z,10
2018-03-25T08:37:28.739Z,10
2018-03-25T08:38:29.032Z,10
2018-03-25T08:39:28.478Z,10
2018-03-25T08:40:28.491Z,10
2018-03-25T08:41:28.784Z,10
2018-03-25T08:42:27.953Z,10
2018-03-25T08:43:28.809Z,10
2018-03-25T08:44:28.824Z,10
2018-03-25T08:45:28.885Z,10
2018-03-25T08:46:29.152Z,10
2018-03-25T08:47:28.295Z,10
2018-03-25T08:48:28.596Z,10
2018-03-25T08:49:28.607Z,10
2018-03-25T08:50:28.617Z,10
2018-03-25T08:51:28.641Z,10
2018-03-25T08:52:28.927Z,10
2018-03-25T08:53:29.219Z,10
2018-03-25T08:54:28.951Z,10
2018-03-25T08:55:28.977Z,10
2018-03-25T08:56:28.407Z,10
2018-03-25T08:57:29.279Z,10
2018-03-25T08:58:29.012Z,10
2018-03-25T08:59:28.454Z,10
2018-03-25T09:00:29.311Z,10
2018-03-25T09:01:29.329Z,10
2018-03-25T09:02:29.064Z,10
2018-03-25T09:03:28.808Z,10
2018-03-25T09:04:28.797Z,10
2018-03-25T09:05:29.096Z,10
2018-03-25T09:06:28.829Z,10
2018-03-25T09:07:29.120Z,10
2018-03-25T09:08:29.143Z,10
2018-03-25T09:09:29.196Z,10
2018-03-25T09:10:29.158Z,10
2018-03-25T09:11:29.184Z,15
2018-03-25T09:12:29.192Z,15
2018-03-25T09:13:29.478Z,15
2018-03-25T09:14:29.210Z,15
2018-03-25T09:15:28.667Z,15
2018-03-25T09:16:28.952Z,15
2018-03-25T09:17:28.968Z,15
2018-03-25T09:18:28.984Z,15
2018-03-25T09:19:28.995Z,15
2018-03-25T09:20:29.019Z,15
2018-03-25T09:21:29.025Z,15
2018-03-25T09:22:29.614Z,15
2018-03-25T09:23:29.062Z,15
2018-03-25T09:24:28.496Z,15
2018-03-25T09:25:29.367Z,15
2018-03-25T09:26:29.380Z,15
2018-03-25T09:27:29.385Z,15
2018-03-25T09:28:29.403Z,15
2018-03-25T09:29:29.476Z,15
2018-03-25T09:30:29.866Z,15
2018-03-25T09:31:29.169Z,15
2018-03-25T09:32:29.455Z,15
2018-03-25T09:33:29.192Z,15
2018-03-25T09:34:29.205Z,15
2018-03-25T09:35:29.212Z,15
2018-03-25T09:36:28.961Z,15
2018-03-25T09:37:29.559Z,15
2018-03-25T09:38:29.535Z,15
2018-03-25T09:39:29.270Z,15
2018-03-25T09:40:29.286Z,15
2018-03-25T09:41:29.302Z,15
2018-03-25T09:42:29.590Z,15
2018-03-25T09:43:29.606Z,15
2018-03-25T09:44:29.056Z,15
2018-03-25T09:45:29.069Z,15
2018-03-25T09:46:29.368Z,15
2018-03-25T09:47:29.679Z,15
2018-03-25T09:48:29.686Z,15
2018-03-25T09:49:29.412Z,15
2018-03-25T09:50:30.025Z,15
2018-03-25T09:51:30.031Z,15
2018-03-25T09:52:29.455Z,15
2018-03-25T09:53:28.898Z,15
2018-03-25T09:54:29.771Z,15
2018-03-25T09:55:29.539Z,15
2018-03-25T09:56:29.792Z,15
2018-03-25T09:57:29.523Z,15
2018-03-25T09:58:29.266Z,15
2018-03-25T09:59:29.838Z,15
2018-03-25T10:00:29.850Z,15
2018-03-25T10:01:29.880Z,15
2018-03-25T10:02:29.608Z,15
2018-03-25T10:03:29.777Z,15
2018-03-25T10:04:29.923Z,20
2018-03-25T10:05:29.966Z,20
2018-03-25T10:06:30.001Z,20
2018-03-25T10:07:29.685Z,20
2018-03-25T10:08:30.258Z,20
2018-03-25T10:09:30.015Z,20
2018-03-25T10:10:29.718Z,20
2018-03-25T10:11:30.092Z,20
2018-03-25T10:12:29.466Z,20
2018-03-25T10:13:29.758Z,20
2018-03-25T10:14:30.361Z,20
2018-03-25T10:15:29.798Z,20
2018-03-25T10:16:30.101Z,20
2018-03-25T10:17:30.388Z,20
2018-03-25T10:18:30.410Z,20
2018-03-25T10:19:30.443Z,20
2018-03-25T10:20:30.155Z,20
2018-03-25T10:21:30.456Z,20
2018-03-25T10:22:30.495Z,20
2018-03-25T10:23:29.931Z,20
2018-03-25T10:24:30.216Z,20
2018-03-25T10:25:30.289Z,20
2018-03-25T10:26:30.244Z,20
2018-03-25T10:27:30.263Z,20
2018-03-25T10:28:30.273Z,20
2018-03-25T10:29:30.012Z,20
2018-03-25T10:30:30.074Z,20
2018-03-25T10:31:30.598Z,20
2018-03-25T10:32:30.348Z,20
2018-03-25T10:33:30.354Z,20
2018-03-25T10:34:30.131Z,20
2018-03-25T10:35:30.580Z,20
2018-03-25T10:36:30.685Z,20
2018-03-25T10:37:30.696Z,20
2018-03-25T10:38:30.439Z,20
2018-03-25T10:39:30.454Z,20
2018-03-25T10:40:30.462Z,20
2018-03-25T10:41:30.192Z,20
2018-03-25T10:42:30.210Z,20
2018-03-25T10:43:30.245Z,20
2018-03-25T10:44:30.275Z,20
2018-03-25T10:45:30.259Z,20
2018-03-25T10:46:30.574Z,20
2018-03-25T10:47:30.855Z,25
2018-03-25T10:48:30.060Z,25
2018-03-25T10:49:30.635Z,25
2018-03-25T10:50:30.623Z,25
2018-03-25T10:51:30.640Z,25
2018-03-25T10:52:30.932Z,25
2018-03-25T10:53:30.961Z,25
2018-03-25T10:54:30.743Z,25
2018-03-25T10:55:30.473Z,25
2018-03-25T10:56:30.456Z,25
2018-03-25T10:57:30.830Z,25
2018-03-25T10:58:31.032Z,25
2018-03-25T10:59:30.484Z,25
2018-03-25T11:00:31.169Z,25
2018-03-25T11:01:30.801Z,25
2018-03-25T11:02:30.532Z,25
2018-03-25T11:03:30.552Z,25
2018-03-25T11:04:31.130Z,25
2018-03-25T11:05:30.877Z,25
2018-03-25T11:06:30.878Z,25
2018-03-25T11:07:30.905Z,25
2018-03-25T11:08:30.924Z,25
2018-03-25T11:09:30.654Z,25
2018-03-25T11:10:30.966Z,25
2018-03-25T11:11:30.681Z,25
2018-03-25T11:12:30.423Z,25
2018-03-25T11:13:30.997Z,25
2018-03-25T11:14:31.012Z,25
2018-03-25T11:15:31.321Z,25
2018-03-25T11:16:31.060Z,25
2018-03-25T11:17:31.456Z,25
2018-03-25T11:18:30.883Z,25
2018-03-25T11:19:30.823Z,25
2018-03-25T11:20:31.405Z,25
2018-03-25T11:21:30.902Z,25
2018-03-25T11:22:31.434Z,25
2018-03-25T11:23:31.458Z,25
2018-03-25T11:24:30.906Z,25
2018-03-25T11:25:31.490Z,25
2018-03-25T11:26:31.212Z,25
2018-03-25T11:27:30.961Z,25
2018-03-25T11:28:31.532Z,25
2018-03-25T11:29:30.985Z,25
2018-03-25T11:30:31.013Z,25
2018-03-25T11:31:30.783Z,25
2018-03-25T11:32:31.037Z,25
2018-03-25T11:33:31.338Z,25
2018-03-25T11:34:30.785Z,25
2018-03-25T11:35:31.108Z,25
2018-03-25T11:36:31.389Z,25
2018-03-25T11:37:30.839Z,25
2018-03-25T11:38:31.420Z,25
2018-03-25T11:39:31.445Z,25
2018-03-25T11:40:31.454Z,25
2018-03-25T11:41:31.520Z,25
2018-03-25T11:42:31.218Z,25
2018-03-25T11:43:31.514Z,25
2018-03-25T11:44:30.678Z,25
2018-03-25T11:45:31.263Z,25
2018-03-25T11:46:31.563Z,25
2018-03-25T11:47:31.604Z,25
2018-03-25T11:48:31.310Z,25
2018-03-25T11:49:31.330Z,25
2018-03-25T11:50:31.630Z,25
2018-03-25T11:51:31.953Z,25
2018-03-25T11:52:31.389Z,25
2018-03-25T11:53:31.693Z,25
2018-03-25T11:54:31.426Z,25
2018-03-25T11:55:31.719Z,25
2018-03-25T11:56:31.733Z,25
2018-03-25T11:57:31.781Z,25
2018-03-25T11:58:31.792Z,25
2018-03-25T11:59:32.097Z,25
2018-03-25T12:00:31.241Z,30
2018-03-25T12:01:31.827Z,30
2018-03-25T12:02:32.133Z,25
2018-03-25T12:03:31.868Z,25
2018-03-25T12:04:31.608Z,25
2018-03-25T12:05:31.610Z,25
2018-03-25T12:06:32.259Z,25
2018-03-25T12:07:31.940Z,25
2018-03-25T12:08:31.964Z,25
2018-03-25T12:09:31.690Z,25
2018-03-25T12:10:32.282Z,25
2018-03-25T12:11:32.355Z,25
2018-03-25T12:12:32.062Z,25
2018-03-25T12:13:31.764Z,25
2018-03-25T12:14:31.807Z,25
2018-03-25T12:15:32.112Z,25
2018-03-25T12:16:31.931Z,25
2018-03-25T12:17:31.841Z,25
2018-03-25T12:18:32.455Z,25
2018-03-25T12:19:32.161Z,25
2018-03-25T12:20:32.397Z,25
2018-03-25T12:21:32.192Z,25
2018-03-25T12:22:32.209Z,25
2018-03-25T12:23:32.522Z,25
2018-03-25T12:24:32.545Z,25
2018-03-25T12:25:31.980Z,25
2018-03-25T12:26:32.001Z,25
2018-03-25T12:27:31.745Z,25
2018-03-25T12:28:32.038Z,25
2018-03-25T12:29:31.490Z,25
2018-03-25T12:30:32.681Z,25
2018-03-25T12:31:32.102Z,25
2018-03-25T12:32:32.399Z,25
2018-03-25T12:33:31.564Z,25
2018-03-25T12:34:32.155Z,25
2018-03-25T12:35:32.742Z,25
2018-03-25T12:36:32.526Z,25
2018-03-25T12:37:32.490Z,25
2018-03-25T12:38:32.237Z,25
2018-03-25T12:39:32.559Z,25
2018-03-25T12:40:32.263Z,25
2018-03-25T12:41:32.333Z,25
2018-03-25T12:42:32.307Z,25
2018-03-25T12:43:32.610Z,25
2018-03-25T12:44:32.068Z,25
2018-03-25T12:45:32.369Z,25
2018-03-25T12:46:32.142Z,25
2018-03-25T12:47:32.679Z,25
2018-03-25T12:48:32.988Z,25
2018-03-25T12:49:32.724Z,25
2018-03-25T12:50:33.025Z,25
2018-03-25T12:51:31.959Z,25
2018-03-25T12:52:33.065Z,25
2018-03-25T12:53:33.079Z,25
2018-03-25T12:54:32.814Z,25
2018-03-25T12:55:33.116Z,25
2018-03-25T12:56:32.567Z,25
2018-03-25T12:57:32.586Z,25
2018-03-25T12:58:32.879Z,25
2018-03-25T12:59:33.192Z,25
2018-03-25T13:00:33.230Z,25
2018-03-25T13:01:33.039Z,25
2018-03-25T13:02:33.269Z,25
2018-03-25T13:03:32.696Z,25
2018-03-25T13:04:32.727Z,25
2018-03-25T13:05:33.312Z,25
2018-03-25T13:06:33.381Z,25
2018-03-25T13:07:32.776Z,25
2018-03-25T13:08:33.367Z,25
2018-03-25T13:09:33.106Z,25
2018-03-25T13:10:33.128Z,25
2018-03-25T13:11:33.140Z,25
2018-03-25T13:12:33.443Z,25
2018-03-25T13:13:32.893Z,25
2018-03-25T13:14:33.190Z,25
2018-03-25T13:15:33.502Z,25
2018-03-25T13:16:33.519Z,25
2018-03-25T13:17:33.249Z,30
2018-03-25T13:18:33.281Z,30
2018-03-25T13:19:32.724Z,30
2018-03-25T13:20:33.615Z,30
2018-03-25T13:21:32.773Z,30
2018-03-25T13:22:33.481Z,30
2018-03-25T13:23:33.099Z,30
2018-03-25T13:24:32.817Z,30
2018-03-25T13:25:33.408Z,30
2018-03-25T13:26:33.437Z,30
2018-03-25T13:27:32.883Z,30
2018-03-25T13:28:32.905Z,30
2018-03-25T13:29:33.493Z,30
2018-03-25T13:30:33.229Z,30
2018-03-25T13:31:33.243Z,30
2018-03-25T13:32:33.831Z,30
2018-03-25T13:33:33.289Z,30
2018-03-25T13:34:33.343Z,35
2018-03-25T13:35:33.327Z,35
2018-03-25T13:36:33.338Z,40
2018-03-25T13:37:33.657Z,40
2018-03-25T13:38:33.376Z,40
2018-03-25T13:39:33.406Z,45
2018-03-25T13:40:33.418Z,50
2018-03-25T13:41:33.162Z,50
2018-03-25T13:42:34.048Z,55
2018-03-25T13:43:34.057Z,55
2018-03-25T13:44:33.224Z,55
2018-03-25T13:45:34.099Z,55
2018-03-25T13:46:34.102Z,60
2018-03-25T13:47:33.848Z,60
2018-03-25T13:48:33.577Z,55
2018-03-25T13:49:33.876Z,50
2018-03-25T13:50:33.907Z,45
2018-03-25T13:51:34.207Z,45
2018-03-25T13:52:33.755Z,40
2018-03-25T13:53:34.245Z,35
2018-03-25T13:54:33.998Z,35
2018-03-25T13:55:33.728Z,35
2018-03-25T13:56:33.739Z,35
2018-03-25T13:57:33.759Z,30
2018-03-25T13:58:34.349Z,30
2018-03-25T13:59:34.078Z,30
2018-03-25T14:00:34.104Z,30
2018-03-25T14:01:33.840Z,30
2018-03-25T14:02:34.150Z,30
2018-03-25T14:03:34.447Z,30
2018-03-25T14:04:33.904Z,30
2018-03-25T14:05:33.923Z,30
2018-03-25T14:06:33.945Z,30
2018-03-25T14:07:33.963Z,30
2018-03-25T14:08:34.274Z,30
2018-03-25T14:09:34.292Z,30
2018-03-25T14:10:34.028Z,30
2018-03-25T14:11:34.324Z,30
2018-03-25T14:12:34.071Z,30
2018-03-25T14:13:34.096Z,30
2018-03-25T14:14:34.676Z,30
2018-03-25T14:15:34.697Z,30
2018-03-25T14:16:33.866Z,30
2018-03-25T14:17:34.742Z,30
2018-03-25T14:18:33.904Z,30
2018-03-25T14:19:34.499Z,30
2018-03-25T14:20:34.235Z,30
2018-03-25T14:21:34.256Z,30
2018-03-25T14:22:34.844Z,30
2018-03-25T14:23:34.867Z,30
2018-03-25T14:24:34.595Z,30
2018-03-25T14:25:34.617Z,30
2018-03-25T14:26:34.643Z,30
2018-03-25T14:27:34.945Z,30
2018-03-25T14:28:34.694Z,25
2018-03-25T14:29:34.427Z,25
2018-03-25T14:30:34.435Z,25